Brownsville, California
Current Conditions -  °F | °C
As of 3:53 AM on Monday 26 Jan 2015 (Local Time) from KOVE Reporting Station
Haze Haze  
Wind Chill: 39°   Ceiling: Unl
Heat Index: 42°   Visibility: 5mi
Dew Point: 40°   Wind: 5mph
Humidity: 92%   Direction: 50°NE
Pressure: 30.14"   Gusts: NA
Location:  39.47°N, 121.27°W
Report Text: KOVE 261153Z AUTO 05004KT 5SM BR CLR 06/04 A3014 RMK AO2 SLP208 T00560044 10089 20050 50007
Loading
Personal Weather Stations






























Interactive Weather Map New forecast layout! Learn more

10-Day Weather Forecast

Advertisements
Track Severe Weather on mobile